Time;durP1;ratioP1;P1;durP2;ratioP2;P2;SDS_P1;SDS_P2;PMS_P1;PMS_P2;Temp;Humidity;BMP_temperature;BMP_pressure;BME280_temperature;BME280_humidity;BME280_pressure;Samples;Min_cycle;Max_cycle;Signal;HPM_P1;HPM_P2
2023/07/25 00:02:17;;;;;;;1.40;1.10;;;;;;;;;;7300039;19;143094;-74
2023/07/25 00:04:44;;;;;;;2.78;1.27;;;;;;;;;;7300169;19;140481;-74
2023/07/25 00:07:11;;;;;;;3.35;1.40;;;;;;;;;;7299731;19;140513;-74
2023/07/25 00:09:38;;;;;;;1.88;1.20;;;;;;;;;;7299669;19;142352;-74
2023/07/25 00:12:05;;;;;;;2.65;1.40;;;;;;;;;;7297010;19;143260;-74
2023/07/25 00:14:34;;;;;;;1.98;1.25;;;;;;;;;;7300062;19;140552;-73
2023/07/25 00:17:01;;;;;;;2.40;1.27;;;;;;;;;;7299875;19;140413;-73
2023/07/25 00:19:29;;;;;;;2.28;1.15;;;;;;;;;;7299355;19;140575;-73
2023/07/25 00:21:56;;;;;;;2.03;1.20;;;;;;;;;;7306184;19;140734;-74
2023/07/25 00:24:23;;;;;;;2.00;1.20;;;;;;;;;;7306911;19;140764;-73
2023/07/25 00:26:50;;;;;;;1.98;1.10;;;;;;;;;;7305425;19;140668;-74
2023/07/25 00:29:17;;;;;;;2.15;1.10;;;;;;;;;;7306803;19;141158;-73
2023/07/25 00:31:44;;;;;;;1.15;1.00;;;;;;;;;;7306220;19;142587;-73
2023/07/25 00:34:11;;;;;;;2.28;1.17;;;;;;;;;;7305634;19;141764;-75
2023/07/25 00:36:38;;;;;;;1.25;1.02;;;;;;;;;;7306502;19;140623;-73
2023/07/25 00:39:06;;;;;;;1.95;0.95;;;;;;;;;;7306697;19;140834;-73
2023/07/25 00:41:33;;;;;;;1.95;1.17;;;;;;;;;;7306766;19;141520;-73
2023/07/25 00:44:00;;;;;;;1.35;1.08;;;;;;;;;;7306051;19;140681;-73
2023/07/25 00:46:27;;;;;;;1.77;1.05;;;;;;;;;;7306671;19;140437;-72
2023/07/25 00:48:54;;;;;;;2.70;1.20;;;;;;;;;;7305434;19;141116;-75
2023/07/25 00:51:21;;;;;;;2.72;1.00;;;;;;;;;;7305234;19;142448;-73
2023/07/25 00:53:48;;;;;;;1.60;1.13;;;;;;;;;;7305532;19;140593;-73
2023/07/25 00:56:15;;;;;;;2.63;1.45;;;;;;;;;;7306346;19;141763;-73
2023/07/25 00:58:42;;;;;;;2.15;1.15;;;;;;;;;;7304267;19;141507;-73
2023/07/25 01:01:09;;;;;;;1.80;1.10;;;;;;;;;;7305957;19;140927;-73
2023/07/25 01:03:38;;;;;;;2.15;1.10;;;;;;;;;;7305700;19;140858;-73
2023/07/25 01:06:07;;;;;;;1.80;1.33;;;;;;;;;;7305991;19;140497;-73
2023/07/25 01:08:46;;;;;;;1.05;0.93;;;;;;;;;;7307539;19;140605;-73
2023/07/25 01:11:13;;;;;;;1.92;1.40;;;;;;;;;;7307578;19;141005;-74
2023/07/25 01:13:39;;;;;;;0.95;0.85;;;;;;;;;;7308326;19;140738;-74
2023/07/25 01:16:09;;;;;;;1.30;0.93;;;;;;;;;;7307134;19;140735;-73
2023/07/25 01:18:36;;;;;;;1.02;0.90;;;;;;;;;;7304729;19;141250;-74
2023/07/25 01:21:03;;;;;;;1.73;1.13;;;;;;;;;;7307366;19;141838;-73
2023/07/25 01:23:31;;;;;;;1.20;1.00;;;;;;;;;;7305758;19;140549;-74
2023/07/25 01:25:58;;;;;;;1.55;0.90;;;;;;;;;;7305796;19;140679;-74
2023/07/25 01:28:25;;;;;;;1.58;1.20;;;;;;;;;;7305325;19;141041;-74
2023/07/25 01:30:52;;;;;;;1.23;0.90;;;;;;;;;;7305658;19;142689;-73
2023/07/25 01:33:19;;;;;;;1.15;0.98;;;;;;;;;;7306133;19;140500;-74
2023/07/25 01:35:46;;;;;;;1.35;1.08;;;;;;;;;;7306397;19;140585;-74
2023/07/25 01:38:13;;;;;;;1.98;1.25;;;;;;;;;;7305677;19;141234;-73
2023/07/25 01:40:41;;;;;;;1.85;1.05;;;;;;;;;;7305010;19;140785;-73
2023/07/25 01:43:08;;;;;;;1.10;0.70;;;;;;;;;;7303312;19;140703;-73
2023/07/25 01:45:35;;;;;;;1.15;0.93;;;;;;;;;;7303927;19;140700;-74
2023/07/25 01:48:03;;;;;;;1.13;0.90;;;;;;;;;;7303882;19;141823;-73
2023/07/25 01:50:30;;;;;;;1.70;1.05;;;;;;;;;;7305562;19;142599;-72
2023/07/25 01:52:57;;;;;;;1.20;0.90;;;;;;;;;;7304092;19;140621;-74
2023/07/25 01:55:24;;;;;;;1.10;0.88;;;;;;;;;;7306098;19;140505;-74
2023/07/25 01:57:51;;;;;;;1.63;0.93;;;;;;;;;;7304898;19;141802;-74
2023/07/25 02:00:18;;;;;;;1.48;1.00;;;;;;;;;;7305476;19;140834;-73
2023/07/25 02:02:45;;;;;;;1.58;0.88;;;;;;;;;;7303944;19;140570;-74
2023/07/25 02:05:12;;;;;;;1.52;1.08;;;;;;;;;;7302717;19;140514;-74
2023/07/25 02:07:39;;;;;;;1.25;0.80;;;;;;;;;;7304210;19;141561;-74
2023/07/25 02:10:07;;;;;;;1.52;0.95;;;;;;;;;;7304690;19;141969;-73
2023/07/25 02:12:34;;;;;;;1.10;1.00;;;;;;;;;;7302770;19;140685;-73
2023/07/25 02:15:01;;;;;;;1.00;0.85;;;;;;;;;;7304310;19;140650;-73
2023/07/25 02:17:28;;;;;;;1.20;0.70;;;;;;;;;;7304347;19;141694;-73
2023/07/25 02:19:55;;;;;;;1.60;1.02;;;;;;;;;;7303414;19;142004;-73
2023/07/25 02:22:22;;;;;;;1.23;0.93;;;;;;;;;;7303262;19;140512;-74
2023/07/25 02:24:49;;;;;;;0.70;0.70;;;;;;;;;;7303142;19;140667;-74
2023/07/25 02:27:16;;;;;;;1.08;0.90;;;;;;;;;;7301325;19;141167;-73
2023/07/25 02:29:43;;;;;;;0.88;0.70;;;;;;;;;;7302694;19;142995;-74
2023/07/25 02:32:11;;;;;;;1.08;0.95;;;;;;;;;;7303027;19;140669;-73
2023/07/25 02:34:40;;;;;;;1.13;0.90;;;;;;;;;;7301931;19;140659;-73
2023/07/25 02:37:07;;;;;;;1.40;0.90;;;;;;;;;;7304175;19;140872;-74
2023/07/25 02:39:35;;;;;;;1.05;0.88;;;;;;;;;;7302711;19;143092;-74
2023/07/25 02:42:02;;;;;;;0.85;0.75;;;;;;;;;;7306437;19;140575;-73
2023/07/25 02:44:29;;;;;;;1.40;0.73;;;;;;;;;;7303784;19;140570;-73
2023/07/25 02:46:56;;;;;;;1.38;1.00;;;;;;;;;;7302007;19;140536;-73
2023/07/25 02:49:23;;;;;;;1.27;0.90;;;;;;;;;;7302472;19;140779;-73
2023/07/25 02:51:50;;;;;;;1.58;0.90;;;;;;;;;;7301903;19;140562;-73
2023/07/25 02:54:17;;;;;;;0.98;0.88;;;;;;;;;;7301820;19;141141;-73
2023/07/25 02:56:44;;;;;;;1.15;0.90;;;;;;;;;;7302996;19;141670;-75
2023/07/25 02:59:11;;;;;;;1.80;0.90;;;;;;;;;;7300852;19;141896;-73
2023/07/25 03:01:38;;;;;;;0.93;0.77;;;;;;;;;;7300026;19;140440;-74
2023/07/25 03:04:05;;;;;;;1.42;0.80;;;;;;;;;;7303533;19;140804;-73
2023/07/25 03:06:32;;;;;;;1.10;0.80;;;;;;;;;;7302745;19;140738;-74
2023/07/25 03:08:59;;;;;;;1.25;0.90;;;;;;;;;;7302813;19;142121;-73
2023/07/25 03:11:26;;;;;;;1.25;0.88;;;;;;;;;;7302506;19;140755;-73
2023/07/25 03:13:53;;;;;;;1.58;0.80;;;;;;;;;;7300078;19;140621;-75
2023/07/25 03:16:20;;;;;;;1.15;0.85;;;;;;;;;;7300469;19;141025;-74
2023/07/25 03:18:50;;;;;;;0.75;0.70;;;;;;;;;;7300904;19;142601;-74
2023/07/25 03:21:17;;;;;;;1.55;0.80;;;;;;;;;;7301081;19;140521;-75
2023/07/25 03:23:44;;;;;;;0.70;0.70;;;;;;;;;;7302164;19;141181;-73
2023/07/25 03:26:11;;;;;;;2.60;1.10;;;;;;;;;;7302865;19;141170;-74
2023/07/25 03:28:38;;;;;;;1.23;0.82;;;;;;;;;;7300281;19;142603;-74
2023/07/25 03:31:05;;;;;;;1.13;0.95;;;;;;;;;;7301565;19;140377;-74
2023/07/25 03:33:32;;;;;;;1.02;0.90;;;;;;;;;;7300892;19;140383;-74
2023/07/25 03:35:59;;;;;;;1.23;1.00;;;;;;;;;;7301652;19;141175;-73
2023/07/25 03:38:26;;;;;;;1.75;0.85;;;;;;;;;;7301637;19;142199;-74
2023/07/25 03:40:56;;;;;;;0.80;0.70;;;;;;;;;;7301012;19;140708;-73
2023/07/25 03:43:24;;;;;;;1.10;0.80;;;;;;;;;;7301007;19;141790;-73
2023/07/25 03:45:51;;;;;;;0.85;0.70;;;;;;;;;;7301914;19;141049;-73
2023/07/25 03:48:18;;;;;;;1.20;0.80;;;;;;;;;;7301882;19;142813;-73
2023/07/25 03:50:45;;;;;;;1.00;0.68;;;;;;;;;;7301651;19;140512;-74
2023/07/25 03:53:12;;;;;;;2.05;1.00;;;;;;;;;;7300984;19;140746;-74
2023/07/25 03:55:39;;;;;;;1.20;0.90;;;;;;;;;;7304265;19;141656;-74
2023/07/25 03:58:06;;;;;;;1.40;0.80;;;;;;;;;;7310038;19;140730;-74
2023/07/25 04:00:34;;;;;;;1.33;0.88;;;;;;;;;;7309925;19;140413;-74
2023/07/25 04:03:01;;;;;;;1.15;0.90;;;;;;;;;;7308085;19;140543;-73
2023/07/25 04:05:43;;;;;;;0.82;0.73;;;;;;;;;;7308614;19;141262;-74
2023/07/25 04:08:10;;;;;;;1.00;0.73;;;;;;;;;;7307798;19;141489;-73
2023/07/25 04:10:37;;;;;;;1.77;0.90;;;;;;;;;;7306824;19;140750;-74
2023/07/25 04:13:04;;;;;;;0.68;0.68;;;;;;;;;;7306554;19;140934;-74
2023/07/25 04:15:31;;;;;;;1.10;0.80;;;;;;;;;;7306487;19;140640;-75
2023/07/25 04:17:58;;;;;;;0.90;0.60;;;;;;;;;;7306534;19;142724;-77
2023/07/25 04:20:25;;;;;;;0.85;0.70;;;;;;;;;;7306664;19;140401;-74
2023/07/25 04:22:52;;;;;;;1.02;0.77;;;;;;;;;;7307071;19;140714;-74
2023/07/25 04:25:19;;;;;;;1.23;0.93;;;;;;;;;;7305963;19;141128;-73
2023/07/25 04:27:46;;;;;;;1.35;0.90;;;;;;;;;;7304489;19;140955;-74
2023/07/25 04:30:14;;;;;;;0.80;0.73;;;;;;;;;;7307182;19;140562;-74
2023/07/25 04:32:41;;;;;;;1.17;0.90;;;;;;;;;;7306273;19;140663;-74
2023/07/25 04:35:08;;;;;;;1.08;0.73;;;;;;;;;;7307625;19;141104;-73
2023/07/25 04:37:35;;;;;;;0.98;0.80;;;;;;;;;;7307360;19;142403;-74
2023/07/25 04:40:02;;;;;;;0.95;0.80;;;;;;;;;;7307617;19;140541;-74
2023/07/25 04:42:29;;;;;;;2.05;1.10;;;;;;;;;;7306163;19;140925;-73
2023/07/25 04:44:56;;;;;;;1.00;0.90;;;;;;;;;;7307809;19;141071;-73
2023/07/25 04:47:24;;;;;;;1.05;0.90;;;;;;;;;;7307003;19;142707;-73
2023/07/25 04:49:51;;;;;;;1.98;1.00;;;;;;;;;;7308137;19;140744;-74
2023/07/25 04:52:18;;;;;;;1.10;0.77;;;;;;;;;;7307573;19;140551;-74
2023/07/25 04:54:45;;;;;;;0.82;0.80;;;;;;;;;;7306407;19;141366;-74
2023/07/25 04:57:13;;;;;;;0.90;0.80;;;;;;;;;;7304904;19;142003;-73
2023/07/25 04:59:40;;;;;;;1.25;0.70;;;;;;;;;;7305398;19;140377;-74
2023/07/25 05:02:07;;;;;;;1.02;0.82;;;;;;;;;;7307476;19;140473;-74
2023/07/25 05:04:34;;;;;;;0.85;0.70;;;;;;;;;;7305605;19;141124;-74
2023/07/25 05:07:01;;;;;;;0.73;0.60;;;;;;;;;;7303443;19;142052;-74
2023/07/25 05:09:28;;;;;;;1.40;0.70;;;;;;;;;;7306434;19;140516;-74
2023/07/25 05:11:55;;;;;;;1.27;0.65;;;;;;;;;;7305250;19;140723;-74
2023/07/25 05:14:22;;;;;;;0.88;0.77;;;;;;;;;;7303901;19;141447;-74
2023/07/25 05:16:49;;;;;;;0.80;0.80;;;;;;;;;;7304331;19;142054;-73
2023/07/25 05:19:17;;;;;;;1.00;0.70;;;;;;;;;;7304956;19;140677;-74
2023/07/25 05:21:44;;;;;;;1.00;0.88;;;;;;;;;;7307775;19;140418;-74
2023/07/25 05:24:11;;;;;;;1.38;0.80;;;;;;;;;;7304349;19;140867;-74
2023/07/25 05:26:38;;;;;;;1.00;0.63;;;;;;;;;;7304476;19;141892;-73
2023/07/25 05:29:05;;;;;;;1.25;0.70;;;;;;;;;;7303715;19;140625;-73
2023/07/25 05:31:32;;;;;;;0.80;0.77;;;;;;;;;;7304789;19;140631;-73
2023/07/25 05:33:59;;;;;;;0.77;0.60;;;;;;;;;;7304558;19;141454;-73
2023/07/25 05:36:26;;;;;;;1.15;0.75;;;;;;;;;;7303592;19;142097;-72
2023/07/25 05:38:53;;;;;;;1.17;0.85;;;;;;;;;;7304316;19;140467;-72
2023/07/25 05:41:21;;;;;;;0.70;0.70;;;;;;;;;;7304115;19;140749;-74
2023/07/25 05:43:48;;;;;;;1.05;0.70;;;;;;;;;;7302571;19;142595;-74
2023/07/25 05:46:15;;;;;;;0.68;0.65;;;;;;;;;;7303730;19;141091;-75
2023/07/25 05:48:42;;;;;;;0.73;0.70;;;;;;;;;;7304561;19;140947;-75
2023/07/25 05:51:09;;;;;;;0.80;0.70;;;;;;;;;;7303464;19;140734;-74
2023/07/25 05:53:36;;;;;;;1.08;0.63;;;;;;;;;;7303835;19;141877;-74
2023/07/25 05:56:03;;;;;;;1.77;0.70;;;;;;;;;;7303654;19;142485;-74
2023/07/25 05:58:31;;;;;;;0.70;0.60;;;;;;;;;;7302554;19;140647;-74
2023/07/25 06:00:58;;;;;;;1.00;0.80;;;;;;;;;;7303796;19;140533;-74
2023/07/25 06:03:25;;;;;;;0.68;0.60;;;;;;;;;;7303351;19;140626;-74
2023/07/25 06:05:52;;;;;;;0.60;0.60;;;;;;;;;;7303117;19;142103;-74
2023/07/25 06:08:19;;;;;;;1.33;0.70;;;;;;;;;;7303928;19;140526;-73
2023/07/25 06:10:46;;;;;;;1.38;0.70;;;;;;;;;;7303290;19;140654;-74
2023/07/25 06:13:13;;;;;;;0.90;0.68;;;;;;;;;;7301967;19;141377;-73
2023/07/25 06:15:40;;;;;;;0.80;0.70;;;;;;;;;;7302815;19;142512;-74
2023/07/25 06:18:08;;;;;;;1.55;0.88;;;;;;;;;;7301789;19;140670;-74
2023/07/25 06:20:35;;;;;;;0.82;0.65;;;;;;;;;;7300979;19;140625;-74
2023/07/25 06:23:02;;;;;;;1.10;0.73;;;;;;;;;;7304002;19;141321;-74
2023/07/25 06:25:29;;;;;;;1.23;0.88;;;;;;;;;;7304410;19;142514;-73
2023/07/25 06:27:56;;;;;;;0.80;0.68;;;;;;;;;;7304178;19;140419;-74
2023/07/25 06:30:23;;;;;;;0.80;0.63;;;;;;;;;;7306079;19;140397;-74
2023/07/25 06:32:50;;;;;;;0.82;0.75;;;;;;;;;;7305665;19;142030;-74
2023/07/25 06:35:23;;;;;;;0.97;0.80;;;;;;;;;;7304767;19;140702;-74
2023/07/25 06:37:51;;;;;;;0.73;0.70;;;;;;;;;;7304362;19;140617;-74
2023/07/25 06:40:18;;;;;;;0.70;0.60;;;;;;;;;;7302830;19;140690;-73
2023/07/25 06:42:45;;;;;;;0.85;0.80;;;;;;;;;;7302936;19;141232;-74
2023/07/25 06:45:12;;;;;;;0.75;0.60;;;;;;;;;;7301148;19;141855;-74
2023/07/25 06:47:39;;;;;;;1.00;0.70;;;;;;;;;;7302360;19;140527;-74
2023/07/25 06:50:06;;;;;;;0.60;0.60;;;;;;;;;;7301893;19;140474;-73
2023/07/25 06:52:33;;;;;;;1.00;0.57;;;;;;;;;;7301725;19;141759;-74
2023/07/25 06:55:01;;;;;;;0.85;0.60;;;;;;;;;;7301894;19;142838;-74
2023/07/25 06:57:28;;;;;;;0.73;0.63;;;;;;;;;;7302890;19;140328;-74
2023/07/25 06:59:56;;;;;;;0.75;0.60;;;;;;;;;;7301325;19;141940;-73
2023/07/25 07:02:23;;;;;;;0.85;0.60;;;;;;;;;;7302559;19;141029;-74
2023/07/25 07:04:50;;;;;;;0.55;0.52;;;;;;;;;;7302705;19;142782;-74
2023/07/25 07:07:17;;;;;;;0.73;0.60;;;;;;;;;;7303095;19;140497;-73
2023/07/25 07:09:44;;;;;;;1.05;0.63;;;;;;;;;;7303258;19;140898;-73
2023/07/25 07:12:11;;;;;;;1.23;0.60;;;;;;;;;;7302513;19;141203;-73
2023/07/25 07:14:38;;;;;;;0.63;0.60;;;;;;;;;;7300470;19;142087;-74
2023/07/25 07:17:05;;;;;;;1.02;0.68;;;;;;;;;;7301237;19;140661;-74
2023/07/25 07:19:34;;;;;;;0.73;0.60;;;;;;;;;;7301355;19;140654;-74
2023/07/25 07:22:01;;;;;;;0.63;0.50;;;;;;;;;;7301016;19;142572;-74
2023/07/25 07:24:28;;;;;;;1.42;0.75;;;;;;;;;;7300924;19;140915;-72
2023/07/25 07:26:55;;;;;;;0.80;0.80;;;;;;;;;;7301342;19;140785;-72
2023/07/25 07:29:22;;;;;;;0.50;0.50;;;;;;;;;;7297519;19;140504;-72
2023/07/25 07:31:50;;;;;;;0.95;0.60;;;;;;;;;;7300616;19;141116;-71
2023/07/25 07:34:17;;;;;;;0.93;0.65;;;;;;;;;;7298811;19;141981;-71
2023/07/25 07:36:45;;;;;;;1.70;0.82;;;;;;;;;;7300352;19;140749;-69
2023/07/25 07:39:12;;;;;;;1.00;0.60;;;;;;;;;;7300693;19;140410;-68
2023/07/25 07:41:39;;;;;;;1.95;0.85;;;;;;;;;;7298603;19;141275;-67
2023/07/25 07:44:06;;;;;;;2.38;1.15;;;;;;;;;;7299726;19;140660;-72
2023/07/25 07:46:34;;;;;;;0.90;0.60;;;;;;;;;;7297921;19;141221;-69
2023/07/25 07:49:01;;;;;;;2.72;0.93;;;;;;;;;;7300243;19;140833;-71
2023/07/25 07:51:29;;;;;;;1.98;0.90;;;;;;;;;;7298555;19;141002;-69
2023/07/25 07:53:56;;;;;;;2.70;0.90;;;;;;;;;;7300111;19;141089;-71
2023/07/25 07:56:24;;;;;;;1.65;0.88;;;;;;;;;;7299475;19;140832;-71
2023/07/25 07:58:53;;;;;;;1.70;1.00;;;;;;;;;;7298990;19;140558;-71
2023/07/25 08:01:21;;;;;;;2.40;1.08;;;;;;;;;;7299587;19;141044;-71
2023/07/25 08:03:48;;;;;;;1.45;0.90;;;;;;;;;;7299442;19;142732;-69
2023/07/25 08:06:16;;;;;;;3.83;1.30;;;;;;;;;;7299986;19;140521;-70
2023/07/25 08:08:43;;;;;;;3.38;1.27;;;;;;;;;;7299371;19;140431;-70
2023/07/25 08:11:10;;;;;;;3.38;1.70;;;;;;;;;;7297437;19;141453;-69
2023/07/25 08:13:37;;;;;;;4.28;1.63;;;;;;;;;;7297352;19;140847;-69
2023/07/25 08:16:04;;;;;;;2.42;1.50;;;;;;;;;;7299482;19;140664;-70
2023/07/25 08:18:31;;;;;;;6.60;2.03;;;;;;;;;;7299494;19;140531;-73
2023/07/25 08:20:59;;;;;;;4.93;1.73;;;;;;;;;;7298855;19;141041;-72
2023/07/25 08:23:26;;;;;;;5.72;1.90;;;;;;;;;;7298715;19;142577;-72
2023/07/25 08:25:56;;;;;;;6.10;2.20;;;;;;;;;;7299438;19;140547;-73
2023/07/25 08:28:23;;;;;;;2.38;1.60;;;;;;;;;;7299321;19;140731;-72
2023/07/25 08:30:58;;;;;;;3.83;1.73;;;;;;;;;;7298231;19;140965;-72
2023/07/25 08:33:25;;;;;;;4.20;1.52;;;;;;;;;;7297569;19;142499;-72
2023/07/25 08:35:54;;;;;;;5.13;1.80;;;;;;;;;;7299722;19;140493;-73
2023/07/25 08:38:23;;;;;;;5.07;1.70;;;;;;;;;;7299094;19;140646;-75
2023/07/25 08:41:08;;;;;;;4.82;1.70;;;;;;;;;;7302455;19;140988;-73
2023/07/25 08:43:36;;;;;;;6.13;1.90;;;;;;;;;;7305690;19;142811;-72
2023/07/25 08:46:08;;;;;;;3.90;1.50;;;;;;;;;;7305977;19;140889;-72
2023/07/25 08:48:38;;;;;;;4.38;1.60;;;;;;;;;;7306003;19;140795;-72
2023/07/25 08:51:07;;;;;;;2.55;1.50;;;;;;;;;;7305981;19;140567;-72
2023/07/25 08:53:41;;;;;;;4.20;1.70;;;;;;;;;;7305242;19;141160;-71
2023/07/25 08:56:08;;;;;;;4.38;1.80;;;;;;;;;;7306142;19;140540;-70
2023/07/25 08:58:35;;;;;;;3.42;1.45;;;;;;;;;;7305038;19;140723;-71
2023/07/25 09:01:04;;;;;;;4.78;1.30;;;;;;;;;;7305134;19;141965;-71
2023/07/25 09:03:31;;;;;;;4.68;1.88;;;;;;;;;;7306986;19;141542;-71
2023/07/25 09:06:00;;;;;;;3.33;1.42;;;;;;;;;;7306213;19;140419;-70
2023/07/25 09:08:27;;;;;;;3.17;1.45;;;;;;;;;;7308044;19;140614;-71
2023/07/25 09:10:56;;;;;;;3.60;1.33;;;;;;;;;;7305296;19;140705;-70
2023/07/25 09:13:23;;;;;;;3.55;1.50;;;;;;;;;;7304767;19;142047;-71
2023/07/25 09:15:52;;;;;;;2.90;1.70;;;;;;;;;;7304683;19;140351;-70
2023/07/25 09:18:19;;;;;;;2.85;1.45;;;;;;;;;;7305210;19;140760;-70
2023/07/25 09:20:46;;;;;;;2.38;1.30;;;;;;;;;;7304678;19;141824;-69
2023/07/25 09:23:21;;;;;;;3.33;1.67;;;;;;;;;;7304761;19;142647;-76
2023/07/25 09:25:48;;;;;;;2.30;1.50;;;;;;;;;;7305485;19;140608;-70
2023/07/25 09:28:15;;;;;;;5.63;1.55;;;;;;;;;;7304691;19;140901;-70
2023/07/25 09:30:46;;;;;;;3.53;1.40;;;;;;;;;;7303790;19;141382;-73
2023/07/25 09:33:31;;;;;;;2.88;1.45;;;;;;;;;;7306625;19;141296;-72
2023/07/25 09:35:58;;;;;;;2.75;1.40;;;;;;;;;;7305186;19;140739;-72
2023/07/25 09:38:26;;;;;;;2.58;1.40;;;;;;;;;;7305812;19;140686;-72
2023/07/25 09:41:01;;;;;;;2.88;1.35;;;;;;;;;;7304243;19;141035;-73
2023/07/25 09:43:29;;;;;;;4.45;1.70;;;;;;;;;;7306005;19;141852;-74
2023/07/25 09:45:56;;;;;;;4.60;1.73;;;;;;;;;;7305778;19;140915;-74
2023/07/25 09:48:24;;;;;;;4.35;1.90;;;;;;;;;;7305701;19;140477;-74
2023/07/25 09:50:51;;;;;;;4.63;1.80;;;;;;;;;;7304620;19;141987;-74
2023/07/25 09:53:18;;;;;;;3.50;2.17;;;;;;;;;;7301748;19;141855;-72
2023/07/25 09:55:45;;;;;;;6.00;2.30;;;;;;;;;;7302140;19;140617;-73
2023/07/25 09:58:12;;;;;;;4.80;2.10;;;;;;;;;;7303900;19;140469;-73
2023/07/25 10:00:40;;;;;;;4.10;2.10;;;;;;;;;;7302933;19;140515;-75
2023/07/25 10:03:08;;;;;;;12.93;2.33;;;;;;;;;;7302123;19;141938;-74
2023/07/25 10:05:41;;;;;;;4.80;2.35;;;;;;;;;;7303769;19;140528;-74
2023/07/25 10:08:08;;;;;;;4.10;1.90;;;;;;;;;;7303477;19;141137;-75
2023/07/25 10:10:36;;;;;;;3.13;1.60;;;;;;;;;;7302761;19;140779;-75
2023/07/25 10:13:03;;;;;;;4.40;1.80;;;;;;;;;;7303261;19;142540;-75
2023/07/25 10:15:30;;;;;;;3.78;1.50;;;;;;;;;;7302764;19;140409;-77
2023/07/25 10:18:16;;;;;;;6.05;1.95;;;;;;;;;;7302879;19;140475;-74
2023/07/25 10:20:43;;;;;;;5.75;2.00;;;;;;;;;;7303953;19;140969;-74
2023/07/25 10:23:11;;;;;;;5.75;2.15;;;;;;;;;;7303876;19;142073;-75
2023/07/25 10:25:39;;;;;;;4.82;2.00;;;;;;;;;;7303199;19;140429;-74
2023/07/25 10:28:09;;;;;;;3.83;2.00;;;;;;;;;;7303296;19;141087;-72
2023/07/25 10:30:43;;;;;;;5.60;2.05;;;;;;;;;;7301872;19;140870;-74
2023/07/25 10:33:14;;;;;;;8.50;2.33;;;;;;;;;;7302987;19;141910;-75
2023/07/25 10:35:42;;;;;;;5.50;1.88;;;;;;;;;;7303055;19;140452;-76
2023/07/25 10:38:13;;;;;;;4.65;1.98;;;;;;;;;;7305730;19;140747;-77
2023/07/25 10:40:59;;;;;;;5.88;2.17;;;;;;;;;;7305416;19;140975;-73
2023/07/25 10:43:28;;;;;;;6.63;1.92;;;;;;;;;;7304099;19;142106;-75
2023/07/25 10:45:56;;;;;;;6.80;2.42;;;;;;;;;;7306194;19;140637;-76
2023/07/25 10:48:29;;;;;;;6.20;2.15;;;;;;;;;;7304962;19;140685;-73
2023/07/25 10:50:57;;;;;;;7.05;2.33;;;;;;;;;;7303857;19;141020;-75
2023/07/25 10:53:24;;;;;;;8.75;2.65;;;;;;;;;;7304621;19;142181;-73
2023/07/25 10:56:03;;;;;;;4.55;1.98;;;;;;;;;;7305183;19;140755;-74
2023/07/25 10:58:39;;;;;;;10.05;2.17;;;;;;;;;;7302963;19;140707;-74
2023/07/25 11:01:07;;;;;;;6.40;2.25;;;;;;;;;;7303102;19;140749;-73
2023/07/25 11:03:35;;;;;;;6.30;2.10;;;;;;;;;;7303335;19;142011;-74
2023/07/25 11:06:08;;;;;;;6.72;2.28;;;;;;;;;;7304840;19;140618;-75
2023/07/25 11:08:39;;;;;;;5.13;2.10;;;;;;;;;;7304551;19;140605;-73
2023/07/25 11:11:11;;;;;;;5.50;2.20;;;;;;;;;;7305367;19;140731;-74
2023/07/25 11:13:39;;;;;;;4.40;1.90;;;;;;;;;;7302380;19;140835;-76
2023/07/25 11:16:08;;;;;;;8.73;2.40;;;;;;;;;;7304767;19;140728;-77
2023/07/25 11:18:38;;;;;;;4.70;1.95;;;;;;;;;;7303974;19;140548;-74
2023/07/25 11:21:09;;;;;;;5.80;2.25;;;;;;;;;;7305303;19;140510;-74
2023/07/25 11:23:36;;;;;;;3.72;1.70;;;;;;;;;;7303369;19;141634;-74
2023/07/25 11:26:06;;;;;;;6.25;2.10;;;;;;;;;;7300175;19;140566;-74
2023/07/25 11:28:37;;;;;;;6.55;1.83;;;;;;;;;;7303782;19;140326;-73
2023/07/25 11:31:04;;;;;;;5.40;2.28;;;;;;;;;;7304151;19;140503;-75
2023/07/25 11:33:38;;;;;;;6.35;1.70;;;;;;;;;;7300542;19;142615;-75
2023/07/25 11:36:06;;;;;;;2.95;2.00;;;;;;;;;;7301164;19;140551;-75
2023/07/25 11:38:39;;;;;;;6.20;1.90;;;;;;;;;;7300416;19;140845;-76
2023/07/25 11:41:07;;;;;;;4.32;1.75;;;;;;;;;;7301391;19;140852;-79
2023/07/25 11:43:34;;;;;;;3.67;1.42;;;;;;;;;;7300938;19;142866;-76
2023/07/25 11:46:01;;;;;;;7.53;1.85;;;;;;;;;;7300157;19;140447;-76
2023/07/25 11:48:29;;;;;;;5.28;1.67;;;;;;;;;;7301363;19;141100;-75
2023/07/25 11:50:57;;;;;;;5.18;1.60;;;;;;;;;;7301081;19;140827;-76
2023/07/25 11:53:26;;;;;;;4.28;1.80;;;;;;;;;;7298498;19;142258;-73
2023/07/25 11:55:55;;;;;;;3.45;1.65;;;;;;;;;;7299999;19;140463;-75
2023/07/25 11:58:22;;;;;;;7.05;2.05;;;;;;;;;;7299742;19;140752;-75
2023/07/25 12:00:54;;;;;;;6.38;2.20;;;;;;;;;;7302022;19;142947;-74
2023/07/25 12:03:23;;;;;;;4.00;1.90;;;;;;;;;;7301725;19;140763;-75
2023/07/25 12:05:52;;;;;;;7.32;2.25;;;;;;;;;;7303594;19;140751;-76
2023/07/25 12:08:38;;;;;;;5.13;2.20;;;;;;;;;;7303855;19;140663;-75
2023/07/25 12:11:07;;;;;;;6.78;2.33;;;;;;;;;;7303924;19;142927;-74
2023/07/25 12:13:44;;;;;;;5.75;2.38;;;;;;;;;;7302293;19;140897;-75
2023/07/25 12:16:27;;;;;;;5.40;2.33;;;;;;;;;;7301702;19;141300;-74
2023/07/25 12:18:58;;;;;;;4.47;2.42;;;;;;;;;;7306837;19;140690;-75
2023/07/25 12:21:30;;;;;;;8.95;3.03;;;;;;;;;;7308563;19;141278;-74
2023/07/25 12:23:58;;;;;;;7.30;2.85;;;;;;;;;;7309530;19;142714;-72
2023/07/25 12:26:28;;;;;;;6.00;2.63;;;;;;;;;;7309905;19;140581;-74
2023/07/25 12:28:59;;;;;;;5.78;2.88;;;;;;;;;;7310043;19;140641;-74
2023/07/25 12:31:27;;;;;;;8.20;3.20;;;;;;;;;;7308075;19;141120;-75
2023/07/25 12:33:54;;;;;;;8.60;3.22;;;;;;;;;;7310412;19;142261;-74
2023/07/25 12:36:22;;;;;;;6.60;2.97;;;;;;;;;;7309115;19;140504;-75
2023/07/25 12:38:49;;;;;;;6.32;2.55;;;;;;;;;;7309791;19;140442;-75
2023/07/25 12:41:16;;;;;;;7.68;2.92;;;;;;;;;;7309326;19;141008;-74
2023/07/25 12:43:44;;;;;;;6.43;2.38;;;;;;;;;;7309132;19;142824;-75
2023/07/25 12:46:11;;;;;;;5.78;2.65;;;;;;;;;;7308298;19;140497;-74
2023/07/25 12:48:39;;;;;;;6.15;2.40;;;;;;;;;;7308917;19;140744;-74
2023/07/25 12:51:08;;;;;;;4.38;2.30;;;;;;;;;;7308944;19;141754;-77
2023/07/25 12:53:35;;;;;;;7.55;2.50;;;;;;;;;;7309109;19;142060;-77
2023/07/25 12:56:02;;;;;;;6.93;3.00;;;;;;;;;;7308018;19;140501;-77
2023/07/25 12:58:29;;;;;;;5.10;2.30;;;;;;;;;;7306728;19;140960;-77
2023/07/25 13:00:57;;;;;;;6.43;2.60;;;;;;;;;;7308134;19;140777;-76
2023/07/25 13:03:24;;;;;;;6.20;2.50;;;;;;;;;;7306978;19;141494;-76
2023/07/25 13:05:52;;;;;;;7.38;2.70;;;;;;;;;;7306875;19;140340;-77
2023/07/25 13:08:23;;;;;;;5.68;2.53;;;;;;;;;;7307851;19;141704;-77
2023/07/25 13:10:50;;;;;;;6.72;2.40;;;;;;;;;;7307502;19;141023;-77
2023/07/25 13:13:17;;;;;;;6.65;2.90;;;;;;;;;;7307965;19;142117;-77
2023/07/25 13:15:44;;;;;;;7.60;2.97;;;;;;;;;;7307805;19;140621;-78
2023/07/25 13:18:11;;;;;;;4.68;2.20;;;;;;;;;;7322203;19;140575;-78
2023/07/25 13:20:39;;;;;;;5.22;2.38;;;;;;;;;;7329585;19;140888;-77
2023/07/25 13:23:09;;;;;;;5.72;2.30;;;;;;;;;;7325552;19;141119;-78
2023/07/25 13:25:37;;;;;;;9.30;2.30;;;;;;;;;;7321967;19;141191;-76
2023/07/25 13:28:04;;;;;;;4.40;2.20;;;;;;;;;;7307619;19;140634;-75
2023/07/25 13:30:31;;;;;;;5.13;2.30;;;;;;;;;;7306751;19;141195;-76
2023/07/25 13:32:58;;;;;;;7.75;2.30;;;;;;;;;;7307219;19;142275;-77
2023/07/25 13:35:26;;;;;;;4.82;1.83;;;;;;;;;;7306519;19;140616;-77
2023/07/25 13:37:53;;;;;;;5.35;1.88;;;;;;;;;;7307437;19;140430;-78
2023/07/25 13:40:20;;;;;;;7.05;2.25;;;;;;;;;;7307709;19;141172;-74
2023/07/25 13:42:48;;;;;;;9.35;2.33;;;;;;;;;;7305228;19;141470;-75
2023/07/25 13:45:15;;;;;;;6.22;2.10;;;;;;;;;;7306480;19;140721;-79
2023/07/25 13:47:42;;;;;;;4.90;1.92;;;;;;;;;;7304707;19;140772;-74
2023/07/25 13:50:10;;;;;;;9.20;2.05;;;;;;;;;;7305370;19;140562;-75
2023/07/25 13:52:37;;;;;;;5.93;1.80;;;;;;;;;;7304648;19;142843;-74
2023/07/25 13:55:05;;;;;;;4.00;2.00;;;;;;;;;;7306740;19;140509;-76
2023/07/25 13:57:32;;;;;;;7.13;2.00;;;;;;;;;;7306546;19;140594;-72
2023/07/25 14:00:04;;;;;;;5.57;1.95;;;;;;;;;;7303576;19;140688;-73
2023/07/25 14:02:33;;;;;;;5.53;2.30;;;;;;;;;;7304317;19;142823;-73
2023/07/25 14:05:01;;;;;;;6.70;2.03;;;;;;;;;;7303338;19;140759;-73
2023/07/25 14:07:31;;;;;;;4.68;2.15;;;;;;;;;;7303142;19;140910;-75
2023/07/25 14:09:59;;;;;;;3.90;1.95;;;;;;;;;;7304034;19;140724;-75
2023/07/25 14:12:26;;;;;;;4.93;2.33;;;;;;;;;;7303133;19;141619;-75
2023/07/25 14:14:54;;;;;;;5.10;1.80;;;;;;;;;;7301009;19;141027;-73
2023/07/25 14:17:25;;;;;;;3.50;1.77;;;;;;;;;;7303112;19;140373;-75
2023/07/25 14:19:52;;;;;;;6.28;2.55;;;;;;;;;;7302908;19;141675;-72
2023/07/25 14:22:19;;;;;;;4.68;2.35;;;;;;;;;;7301563;19;142579;-75
2023/07/25 14:24:47;;;;;;;9.20;3.75;;;;;;;;;;7303534;19;140768;-74
2023/07/25 14:27:14;;;;;;;8.38;3.72;;;;;;;;;;7301788;19;140580;-73
2023/07/25 14:29:41;;;;;;;12.70;4.47;;;;;;;;;;7301494;19;141165;-73
2023/07/25 14:32:08;;;;;;;12.98;5.80;;;;;;;;;;7300598;19;142728;-73
2023/07/25 14:34:36;;;;;;;13.40;5.22;;;;;;;;;;7302147;19;140839;-75